Aérodrome :
LOGIN :

S'inscrire | Disclaimer

   EN    FR    IT 

 










Légende :    VFR   VFR Marginal   IFR   IFR Intensif   IFR Très Intensif
Visi : 
Plafond : 
>= 8 km
>= 3000ft
5 à 8 km
1000 à 3000 ft
1500m à 5 km
500 à 1000 ft
800 à 1500m
200 à 500 ft
< 800m
< 200 ft
Symboles :   Orages  Brouillard  Fortes neiges  Fortes précipitations  Vent > 20 kt
SIGMETs :   Divers  Orages  Givrage  Turbulence  Onde Orograph.  Cendres Volcan.







- Altitude de l'aérodrome : 87 ft
- Code IATA : FSC
- Voir les cartes d'approche


LFKF - Figari

DERNIER METAR :
  • 211700Z AUTO 24010KT CAVOK 21/16 Q1019 NOSIG

METARs EXPIRÉS :
  • 211630Z AUTO 24010KT CAVOK 22/16 Q1019 NOSIG
  • 211600Z AUTO 25011KT CAVOK 23/17 Q1019 NOSIG
  • 211530Z AUTO 25011KT CAVOK 24/18 Q1019 NOSIG
  • 211500Z AUTO 24013KT CAVOK 24/18 Q1020 NOSIG
  • 211430Z AUTO 23014KT CAVOK 25/18 Q1020 NOSIG

TAF TAF LFKF
Valide du 21 à 15h jusqu'au 22 à 15h UTC


211400Z 2115/2215 24010G20KT 9999 FEW040
BECMG 2115/2117 24010KT
TEMPO 2202/2204 SHRA BKN010 FEW020TCU BKN040 BKN200
BECMG 2207/2209 27015G25KT
BECMG 2209/2211 27020G35KT
Pas de NOTAMs connus pour ce terrain.



MET'MAP, la Météo Aéronautique d'un coup d'oeil ! - Copyright ORBIFLY Décembre 2007 - Disclaimer

ORBIFLY MET'MAP TEAM :

Programmation & Développement : Alexandra Zaïnal
Conception & Développement : Baudouin d'Aumeries
Co-Programmation & Développement : Marc-Olivier Méhu
Soutien technique & logistique : Manuel Goepfert

Contact : metmap@orbifly.com




SOURCES & CREDITS :

   NOAA